Latest Weather Observations for Blackwater Airport

IDQ60801

Issued at 10:12 pm EST Thursday 16 August 2018 (issued every 10 minutes, with the page automatically refreshed every 10 minutes)

About weather observations | Map of weather stations | Latest weather observations for QLD | Other Formats
Station Details ID: 035134 Name: BLACKWATER AIRPORT Lat: -23.60 Lon: 148.81 Height: 192.95 m
Data from the previous 72 hours. | See also: Recent months at Blackwater Airport
Date/Time
EST
Temp
°C
App
Temp
°C
Dew
Point
°C
Rel
Hum
%
Delta-T
°C
Wind Press
QNH
hPa
Press
MSL
hPa
Rain since
9am
mm
Dir  Spd
km/h
Gust
km/h
Spd
kts
Gust
kts
16/10:00pm 12.7 10.6 -0.9 39 5.6 CALM 0 0 0 0 1015.3 1014.9 0.0
16/09:30pm 14.6 12.5 -1.1 34 6.5 CALM 0 6 0 3 1015.4 1015.0 0.0
16/09:00pm 16.5 13.3 -0.2 32 7.2 ESE 6 7 3 4 1015.2 1014.8 0.0
16/08:30pm 14.9 11.6 -1.6 32 6.8 SE 6 7 3 4 1015.0 1014.5 0.0
16/08:00pm 15.4 12.9 -1.2 32 6.9 SW 2 11 1 6 1014.8 1014.3 0.0
16/07:30pm 15.5 12.7 -2.9 28 7.4 SW 2 9 1 5 1014.5 1014.0 0.0
16/07:00pm 18.8 14.7 -2.7 23 9.0 SW 9 11 5 6 1014.3 1013.8 0.0
16/06:30pm 21.8 18.0 -0.8 22 10.1 SW 9 13 5 7 1013.8 1013.4 0.0
16/06:00pm 22.6 19.2 -2.2 19 10.8 WNW 6 7 3 4 1013.5 1013.1 0.0
16/05:30pm 26.0 23.3 -2.6 15 12.8 WSW 2 9 1 5 1013.4 1013.0 0.0
16/05:00pm 27.1 22.8 -1.7 15 13.2 WNW 11 15 6 8 1013.3 1012.9 0.0
16/04:30pm 27.2 23.2 -2.6 14 13.4 NNW 9 17 5 9 1013.3 1012.9 0.0
16/04:00pm 27.8 24.2 -2.1 14 13.7 SW 7 13 4 7 1013.4 1013.0 0.0
16/03:30pm 27.9 24.1 -1.1 15 13.5 SE 9 15 5 8 1013.6 1013.2 0.0
16/03:00pm 27.5 23.6 -1.4 15 13.3 ESE 9 15 5 8 1013.8 1013.4 0.0
16/02:30pm 27.1 23.0 0.0 17 12.8 E 11 17 6 9 1014.2 1013.7 0.0
16/02:00pm 27.0 23.0 0.7 18 12.6 SSE 11 19 6 10 1014.7 1014.2 0.0
16/01:30pm 27.7 23.9 2.0 19 12.6 W 11 19 6 10 1015.3 1014.9 0.0
16/01:00pm 25.7 22.0 2.4 22 11.4 SW 11 15 6 8 1015.8 1015.4 0.0
16/12:30pm 25.4 22.1 4.5 26 10.6 NW 11 17 6 9 1016.5 1016.1 0.0
16/12:00pm 24.3 20.7 5.1 29 9.7 WNW 13 19 7 10 1017.3 1016.9 0.0
16/11:30am 24.9 21.2 6.1 30 9.8 NW 15 20 8 11 1018.0 1017.6 0.0
16/11:00am 23.7 21.0 7.3 35 8.6 W 11 20 6 11 1018.7 1018.3 0.0
16/10:30am 22.6 19.3 8.0 39 7.7 NW 15 22 8 12 1019.2 1018.8 0.0
16/10:00am 22.0 18.6 9.2 44 6.9 WNW 17 24 9 13 1019.3 1018.9 0.0
16/09:30am 19.7 17.5 9.3 51 5.5 WNW 11 17 6 9 1019.3 1018.9 0.0
16/09:00am 18.5 16.0 9.8 57 4.6 NW 13 17 7 9 1019.3 1018.9 0.0
16/08:30am 17.8 16.1 11.1 65 3.7 NNW 11 15 6 8 1019.3 1018.9 0.0
16/08:00am 15.7 14.9 9.8 68 3.1 NNE 4 7 2 4 1019.3 1018.9 0.0
16/07:30am 12.6 11.3 9.1 79 1.8 ESE 6 7 3 4 1019.0 1018.6 0.0
16/07:00am 7.6 5.3 5.6 87 0.9 ESE 7 9 4 5 1018.7 1018.3 0.0
16/06:30am 6.3 3.7 4.1 86 1.0 ESE 7 9 4 5 1018.4 1018.0 0.0
16/06:00am 6.1 4.7 3.3 82 1.2 CALM 0 6 0 3 1017.9 1017.5 0.0
16/05:30am 7.5 5.3 5.1 85 1.1 ESE 6 9 3 5 1017.9 1017.5 0.0
16/05:00am 7.2 4.5 2.9 74 1.8 ESE 6 7 3 4 1017.9 1017.5 0.0
16/04:30am 8.0 5.1 4.9 81 1.4 ESE 9 9 5 5 1017.9 1017.5 0.0
16/04:00am 7.8 5.1 3.8 76 1.7 ESE 7 9 4 5 1018.0 1017.6 0.0
16/03:30am 9.4 7.1 5.8 78 1.7 ENE 7 7 4 4 1018.0 1017.6 0.0
16/03:00am 10.2 8.0 6.0 75 2.0 ENE 7 9 4 5 1018.1 1017.7 0.0
16/02:30am 10.6 8.5 6.7 77 1.9 NE 7 9 4 5 1018.1 1017.7 0.0
16/02:00am 10.7 8.2 6.5 75 2.0 NE 9 11 5 6 1018.4 1018.0 0.0
16/01:30am 11.1 8.7 5.4 68 2.6 NE 7 9 4 5 1018.7 1018.3 0.0
16/01:00am 11.1 8.2 4.8 65 2.9 NE 9 11 5 6 1018.8 1018.4 0.0
16/12:30am 12.1 8.8 4.3 59 3.6 NE 11 13 6 7 1019.0 1018.6 0.0
16/12:00am 13.5 9.7 3.8 52 4.4 ENE 13 17 7 9 1018.8 1018.4 0.0
 
Date/Time
EST
Temp
°C
App
Temp
°C
Dew
Point
°C
Rel
Hum
%
Delta-T
°C
Wind Press
QNH
hPa
Press
MSL
hPa
Rain since
9am
mm
Dir  Spd
km/h
Gust
km/h
Spd
kts
Gust
kts
15/11:30pm 13.8 9.8 2.7 47 5.0 E 13 17 7 9 1018.7 1018.3 0.0
15/11:00pm 13.8 10.2 0.8 41 5.6 E 9 11 5 6 1018.7 1018.3 0.0
15/10:30pm 12.6 8.5 -0.3 41 5.3 E 11 13 6 7 1018.5 1018.1 0.0
15/10:00pm 10.6 7.1 -1.4 43 4.7 SSE 7 9 4 5 1018.7 1018.3 0.0
15/09:30pm 11.7 7.0 -1.8 39 5.4 S 13 15 7 8 1018.5 1018.1 0.0
15/09:00pm 12.0 7.2 -2.2 37 5.6 S 13 13 7 7 1018.5 1018.1 0.0
15/08:30pm 13.4 11.1 -2.1 34 6.2 CALM 0 9 0 5 1018.5 1018.1 0.0
15/08:00pm 16.3 12.8 -1.7 29 7.5 ENE 7 7 4 4 1018.5 1018.1 0.0
15/07:30pm 17.6 14.3 -1.6 27 8.1 ENE 6 7 3 4 1018.3 1017.9 0.0
15/07:00pm 17.8 14.2 -1.9 26 8.3 ENE 7 9 4 5 1018.1 1017.7 0.0
15/06:30pm 19.3 15.8 -1.2 25 8.9 NE 7 9 4 5 1018.0 1017.6 0.0
15/06:00pm 20.7 17.1 -1.8 22 9.7 NE 7 9 4 5 1017.9 1017.5 0.0
15/05:30pm 23.1 19.5 -1.8 19 11.0 NE 7 9 4 5 1018.0 1017.6 0.0
15/05:00pm 24.5 20.5 -2.1 17 11.8 NNE 9 15 5 8 1018.0 1017.6 0.0
15/04:30pm 25.2 21.2 -2.4 16 12.3 NNE 9 17 5 9 1018.0 1017.6 0.0
15/04:00pm 25.8 21.4 -2.8 15 12.7 NNW 11 19 6 10 1018.1 1017.7 0.0
15/03:30pm 25.7 21.0 -2.0 16 12.5 NNE 13 20 7 11 1018.3 1017.9 0.0
15/03:00pm 25.7 21.4 -2.0 16 12.4 NE 11 22 6 12 1018.6 1018.2 0.0
15/02:30pm 25.8 21.6 -3.7 14 12.9 NE 9 19 5 10 1019.0 1018.6 0.0
15/02:00pm 25.9 22.4 -2.7 15 12.7 NE 6 19 3 10 1019.4 1019.0 0.0
15/01:30pm 24.4 19.8 -0.7 19 11.5 E 13 20 7 11 1020.2 1019.8 0.0
15/01:00pm 23.9 19.3 -1.1 19 11.2 E 13 22 7 12 1020.8 1020.4 0.0
15/12:30pm 23.8 19.8 0.8 22 10.7 E 11 22 6 12 1021.4 1021.0 0.0
15/12:00pm 24.0 20.5 1.0 22 10.8 WNW 9 15 5 8 1021.9 1021.5 0.0
15/11:30am 22.5 19.0 1.5 25 9.8 ENE 9 17 5 9 1022.6 1022.2 0.0
15/11:00am 21.8 18.8 3.9 31 8.7 N 9 19 5 10 1022.9 1022.5 0.0
15/10:30am 21.0 17.9 3.7 32 8.4 N 9 15 5 8 1023.2 1022.8 0.0
15/10:00am 20.2 17.3 4.7 36 7.6 NNE 9 15 5 8 1023.5 1023.1 0.0
15/09:30am 18.9 16.3 6.1 43 6.4 ENE 9 13 5 7 1023.6 1023.2 0.0
15/09:00am 17.8 15.5 5.7 45 5.9 NE 7 11 4 6 1023.6 1023.2 0.0
15/08:30am 15.9 12.9 4.0 45 5.6 ESE 9 11 5 6 1023.5 1023.1 0.0
15/08:00am 13.8 12.0 3.3 49 4.7 S 2 7 1 4 1023.5 1023.1 0.0
15/07:30am 10.1 7.3 2.2 58 3.4 S 6 7 3 4 1023.2 1022.8 0.0
15/07:00am 6.3 2.8 1.4 71 2.0 S 9 11 5 6 1022.9 1022.5 0.0
15/06:30am 5.0 1.3 0.0 70 1.9 SSW 9 11 5 6 1022.7 1022.3 0.0
15/06:00am 4.9 0.8 -0.5 68 2.0 SSW 11 13 6 7 1022.5 1022.1 0.0
15/05:30am 5.3 1.2 -0.1 68 2.1 SSW 11 13 6 7 1022.2 1021.8 0.0
15/05:00am 5.4 1.7 -0.2 67 2.1 SSW 9 11 5 6 1022.0 1021.6 0.0
15/04:30am 4.6 0.3 -2.0 62 2.4 SSW 11 11 6 6 1021.9 1021.5 0.0
15/04:00am 4.7 1.2 -3.1 57 2.8 SSE 6 7 3 4 1021.7 1021.3 0.0
15/03:30am 5.7 3.5 -1.9 58 2.8 CALM 0 0 0 0 1021.7 1021.3 0.0
15/03:00am 5.3 2.9 -3.0 55 3.0 CALM 0 0 0 0 1021.8 1021.4 0.0
15/02:30am 8.7 6.6 -0.6 52 3.7 CALM 0 0 0 0 1021.8 1021.4 0.0
15/02:00am 9.7 6.2 -1.3 46 4.3 ENE 7 9 4 5 1021.9 1021.5 0.0
15/01:30am 10.9 7.6 0.0 47 4.5 ENE 7 9 4 5 1022.0 1021.6 0.0
15/01:00am 8.4 4.7 -4.1 41 4.5 ENE 6 7 3 4 1022.3 1021.9 0.0
15/12:30am 10.7 6.9 -3.4 37 5.3 E 7 11 4 6 1022.3 1021.9 0.0
15/12:00am 11.3 6.9 -2.8 37 5.4 ENE 11 13 6 7 1022.5 1022.1 0.0
 
Date/Time
EST
Temp
°C
App
Temp
°C
Dew
Point
°C
Rel
Hum
%
Delta-T
°C
Wind Press
QNH
hPa
Press
MSL
hPa
Rain since
9am
mm
Dir  Spd
km/h
Gust
km/h
Spd
kts
Gust
kts
14/11:30pm 10.7 6.1 -4.1 35 5.5 E 11 13 6 7 1022.6 1022.2 0.0
14/11:00pm 8.8 3.8 -4.4 39 4.7 NE 13 26 7 14 1022.9 1022.5 0.0
14/10:30pm 8.1 3.1 -4.3 41 4.4 S 13 15 7 8 1022.6 1022.2 0.0
14/10:00pm 8.4 3.7 -4.7 39 4.6 SSW 11 13 6 7 1022.6 1022.2 0.0
14/09:30pm 9.4 5.1 -4.5 37 5.0 S 9 11 5 6 1022.6 1022.2 0.0
14/09:00pm 10.6 6.4 -4.2 35 5.5 SSE 9 9 5 5 1022.7 1022.3 0.0
14/08:30pm 11.5 7.5 -5.4 30 6.2 NNE 7 7 4 4 1022.6 1022.2 0.0
14/08:00pm 11.9 8.0 -5.1 30 6.2 N 7 9 4 5 1022.5 1022.1 0.0
14/07:30pm 14.0 11.3 -5.7 25 7.3 CALM 0 4 0 2 1022.4 1022.0 0.0
14/07:00pm 14.2 9.8 -5.5 25 7.4 NE 9 11 5 6 1022.0 1021.6 0.0
14/06:30pm 16.1 11.8 -5.0 23 8.2 NE 9 11 5 6 1021.6 1021.2 0.0
14/06:00pm 17.9 12.8 -5.3 20 9.1 NE 13 15 7 8 1021.4 1021.0 0.0
14/05:30pm 21.0 16.3 -4.9 17 10.6 NE 11 13 6 7 1021.2 1020.8 0.0
14/05:00pm 23.2 18.6 -4.0 16 11.5 NNE 11 15 6 8 1020.9 1020.5 0.0
14/04:30pm 23.9 19.3 -4.3 15 12.0 NE 11 15 6 8 1021.0 1020.6 0.0
14/04:00pm 24.2 20.0 -4.0 15 12.0 E 9 17 5 9 1021.0 1020.6 0.0
14/03:30pm 23.9 19.7 -4.3 15 12.0 NNE 9 15 5 8 1021.0 1020.6 0.0
14/03:00pm 24.3 20.6 -3.1 16 11.9 WNW 7 13 4 7 1021.2 1020.8 0.0
14/02:30pm 23.4 19.3 -3.0 17 11.4 NW 9 19 5 10 1021.5 1021.1 0.0
14/02:00pm 23.8 19.7 -2.7 17 11.5 NNW 9 17 5 9 1021.9 1021.5 0.0
14/01:30pm 24.2 19.9 -1.6 18 11.6 NNW 11 17 6 9 1022.2 1021.8 0.0
14/01:00pm 22.9 18.6 -1.9 19 10.9 NNE 11 17 6 9 1022.7 1022.3 0.0
14/12:30pm 22.5 17.8 -1.6 20 10.6 ENE 13 17 7 9 1023.2 1022.8 0.0
14/12:00pm 22.3 18.0 -1.7 20 10.5 ENE 11 20 6 11 1023.9 1023.5 0.0
14/11:30am 21.8 17.9 -1.5 21 10.2 NNW 9 15 5 8 1024.5 1024.2 0.0
14/11:00am 20.5 16.2 -1.3 23 9.5 N 11 20 6 11 1025.2 1024.8 0.0
14/10:30am 19.8 15.9 -1.3 24 9.2 ENE 9 19 5 10 1025.5 1025.1 0.0
14/10:00am 19.2 15.0 -0.7 26 8.6 ESE 11 19 6 10 1025.8 1025.4 0.0
14/09:30am 17.9 13.3 -0.8 28 8.1 ESE 13 20 7 11 1025.8 1025.4 0.0
14/09:00am 16.9 11.1 -1.2 29 7.6 SE 19 24 10 13 1025.8 1025.4 0.0
14/08:30am 16.0 10.1 -0.7 32 7.1 SE 20 28 11 15 1025.6 1025.2 0.0
14/08:00am 14.6 8.9 -1.1 34 6.5 SSE 19 28 10 15 1025.7 1025.3 0.0
14/07:30am 13.1 6.7 -1.6 36 5.9 SSE 22 30 12 16 1025.5 1025.1 0.0
14/07:00am 12.2 6.2 -1.7 38 5.5 SSE 20 32 11 17 1025.3 1024.9 0.0
14/06:30am 11.2 5.7 -2.2 39 5.2 SSE 17 20 9 11 1024.7 1024.4 0.0
14/06:00am 11.7 5.2 -2.5 37 5.5 SSE 22 30 12 16 1024.4 1024.1 0.0
14/05:30am 11.9 5.8 -2.7 36 5.7 SSE 20 30 11 16 1024.2 1023.9 0.0
14/05:00am 11.7 5.5 -3.2 35 5.7 SSE 20 32 11 17 1023.9 1023.5 0.0
14/04:30am 12.2 5.6 -3.2 34 5.9 SSE 22 32 12 17 1023.5 1023.1 0.0
14/04:00am 12.3 6.1 -3.5 33 6.0 S 20 26 11 14 1023.7 1023.3 0.0
14/03:30am 12.5 5.9 -3.7 32 6.2 SSE 22 32 12 17 1023.5 1023.1 0.0
14/03:00am 12.6 5.1 -4.5 30 6.4 SSE 26 39 14 21 1023.7 1023.3 0.0
14/02:30am 13.2 5.0 -4.4 29 6.7 SSE 30 39 16 21 1023.6 1023.2 0.0
14/02:00am 13.0 5.4 -5.1 28 6.7 SSE 26 39 14 21 1023.6 1023.2 0.0
14/01:30am 13.1 5.8 -5.9 26 7.0 SSE 24 30 13 16 1023.9 1023.5 0.0
14/01:00am 13.1 5.7 -7.0 24 7.2 SSE 24 33 13 18 1024.0 1023.7 0.0
14/12:30am 13.2 6.2 -7.4 23 7.3 SSE 22 28 12 15 1024.3 1024.0 0.0
14/12:00am 13.5 6.1 -7.8 22 7.5 SSE 24 30 13 16 1024.6 1024.3 0.0
 
Date/Time
EST
Temp
°C
App
Temp
°C
Dew
Point
°C
Rel
Hum
%
Delta-T
°C
Wind Press
QNH
hPa
Press
MSL
hPa
Rain since
9am
mm
Dir  Spd
km/h
Gust
km/h
Spd
kts
Gust
kts
13/11:30pm 13.7 6.7 -7.6 22 7.6 SSE 22 30 12 16 1024.6 1024.3 0.0
13/11:00pm 14.1 7.6 -7.9 21 7.8 SSE 19 24 10 13 1024.7 1024.4 0.0
13/10:30pm 13.7 7.2 -7.6 22 7.6 S 19 22 10 12 1024.8 1024.5 0.0

Other Formats:

Comma delimited format used in spreadsheet applications
http://www.bom.gov.au/fwo/IDQ60801/IDQ60801.94398.axf

JavaScript Object Notation format (JSON) in row-major order
http://www.bom.gov.au/fwo/IDQ60801/IDQ60801.94398.json